Jamaica Beach, Texas
Current Conditions -  °F | °C
As of 7:05 PM on Saturday 22 Nov 2014 (Local Time) from KGLS Reporting Station
Thunderstorm Thunderstorm  
Wind Chill: 67°   Ceiling: 1900
Heat Index: 67°   Visibility: 8mi
Dew Point: 66°   Wind: 3mph
Humidity: 97%   Direction: NA
Pressure: 29.84"   Gusts: NA
Location:  29.3093°N, 94.7816°W
Report Text: KGLS 230105Z AUTO VRB03KT 8SM VCTS -RA SCT013 BKN019 OVC070 19/19 A2984 RMK AO2 LTG DSNT S AND SW P0000 T01940189
Loading
Personal Weather Stations






























Interactive Weather Map New forecast layout! Learn more

10-Day Weather Forecast

Advertisements
Track Severe Weather on mobile